createdAt,value
2022-09-17T00:01:22.266Z,9.39
2022-09-17T00:03:57.376Z,9.40
2022-09-17T00:06:25.539Z,9.37
2022-09-17T00:08:53.716Z,9.42
2022-09-17T00:11:26.503Z,9.40
2022-09-17T00:13:53.916Z,9.42
2022-09-17T00:16:39.982Z,9.44
2022-09-17T00:19:08.393Z,9.41
2022-09-17T00:21:37.286Z,9.39
2022-09-17T00:24:08.212Z,9.41
2022-09-17T00:26:34.952Z,9.44
2022-09-17T00:29:04.768Z,9.47
2022-09-17T00:31:31.995Z,9.43
2022-09-17T00:34:04.013Z,9.43
2022-09-17T00:36:30.681Z,9.40
2022-09-17T00:38:59.037Z,9.43
2022-09-17T00:41:31.673Z,9.39
2022-09-17T00:44:00.850Z,9.45
2022-09-17T00:46:38.539Z,9.46
2022-09-17T00:49:13.755Z,9.52
2022-09-17T00:51:47.750Z,9.59
2022-09-17T00:54:14.183Z,9.62
2022-09-17T00:56:41.620Z,9.74
2022-09-17T00:59:08.610Z,9.74
2022-09-17T01:01:36.151Z,9.75
2022-09-17T01:04:03.421Z,9.75
2022-09-17T01:06:52.492Z,9.73
2022-09-17T01:09:40.683Z,9.71
2022-09-17T01:12:20.982Z,9.67
2022-09-17T01:15:22.718Z,9.63
2022-09-17T01:17:59.522Z,9.58
2022-09-17T01:20:43.951Z,9.54
2022-09-17T01:23:40.964Z,9.49
2022-09-17T01:26:43.769Z,9.43
2022-09-17T01:29:28.719Z,9.40
2022-09-17T01:32:01.714Z,9.37
2022-09-17T01:34:36.356Z,9.34
2022-09-17T01:37:22.653Z,9.28
2022-09-17T01:40:05.405Z,9.28
2022-09-17T01:42:45.039Z,9.31
2022-09-17T01:45:29.987Z,9.27
2022-09-17T01:48:07.053Z,9.19
2022-09-17T01:50:40.587Z,9.11
2022-09-17T01:53:11.181Z,9.11
2022-09-17T01:55:40.499Z,9.02
2022-09-17T01:58:25.438Z,9.08
2022-09-17T02:01:01.590Z,9.04
2022-09-17T02:03:37.650Z,9.00
2022-09-17T02:06:07.318Z,8.90
2022-09-17T02:08:47.645Z,8.84
2022-09-17T02:11:17.040Z,8.83
2022-09-17T02:13:52.162Z,8.82
2022-09-17T02:16:27.486Z,8.69
2022-09-17T02:18:56.016Z,8.68
2022-09-17T02:21:47.048Z,8.62
2022-09-17T02:24:23.391Z,8.62
2022-09-17T02:27:14.787Z,8.56
2022-09-17T02:29:43.637Z,8.52
2022-09-17T02:32:12.138Z,8.48
2022-09-17T02:34:39.621Z,8.46
2022-09-17T02:37:06.999Z,8.41
2022-09-17T02:39:33.704Z,8.38
2022-09-17T02:42:06.448Z,8.32
2022-09-17T02:44:48.020Z,8.33
2022-09-17T02:47:35.929Z,8.31
2022-09-17T02:50:16.054Z,8.27
2022-09-17T02:53:22.988Z,8.27
2022-09-17T02:56:07.463Z,8.22
2022-09-17T02:59:09.361Z,8.19
2022-09-17T03:01:48.915Z,8.15
2022-09-17T03:04:18.501Z,8.11
2022-09-17T03:06:49.062Z,8.06
2022-09-17T03:09:18.131Z,8.03
2022-09-17T03:11:44.764Z,7.99
2022-09-17T03:14:11.078Z,7.97
2022-09-17T03:16:37.483Z,8.00
2022-09-17T03:19:04.029Z,7.96
2022-09-17T03:21:33.041Z,7.94
2022-09-17T03:24:00.254Z,7.90
2022-09-17T03:26:27.616Z,7.88
2022-09-17T03:28:54.061Z,7.86
2022-09-17T03:31:23.199Z,7.83
2022-09-17T03:33:50.165Z,7.82
2022-09-17T03:36:18.846Z,7.84
2022-09-17T03:38:45.374Z,7.87
2022-09-17T03:41:11.754Z,7.94
2022-09-17T03:43:39.768Z,7.99
2022-09-17T03:46:06.660Z,8.08
2022-09-17T03:48:36.939Z,8.05
2022-09-17T03:51:05.795Z,8.19
2022-09-17T03:53:33.032Z,8.24
2022-09-17T03:56:04.005Z,8.33
2022-09-17T03:58:31.359Z,8.41
2022-09-17T04:00:58.202Z,8.48
2022-09-17T04:03:26.306Z,8.50
2022-09-17T04:05:52.942Z,8.55
2022-09-17T04:08:19.677Z,8.64
2022-09-17T04:10:46.668Z,8.58
2022-09-17T04:13:14.500Z,8.61
2022-09-17T04:15:41.547Z,8.64
2022-09-17T04:18:08.163Z,8.66
2022-09-17T04:20:36.807Z,8.70
2022-09-17T04:23:03.657Z,8.69
2022-09-17T04:25:32.341Z,8.76
2022-09-17T04:27:58.687Z,8.82
2022-09-17T04:30:25.073Z,8.81
2022-09-17T04:32:51.473Z,8.86
2022-09-17T04:35:20.355Z,8.90
2022-09-17T04:37:57.354Z,8.90
2022-09-17T04:40:25.660Z,8.91
2022-09-17T04:42:53.324Z,8.94
2022-09-17T04:45:20.426Z,9.01
2022-09-17T04:47:50.894Z,8.99
2022-09-17T04:50:23.732Z,9.12
2022-09-17T04:52:50.274Z,9.10
2022-09-17T04:55:16.810Z,9.13
2022-09-17T04:57:48.420Z,9.13
2022-09-17T05:00:18.101Z,9.21
2022-09-17T05:02:48.978Z,9.17
2022-09-17T05:05:16.803Z,9.17
2022-09-17T05:07:43.393Z,9.20
2022-09-17T05:10:14.397Z,9.19
2022-09-17T05:12:40.834Z,9.27
2022-09-17T05:15:07.810Z,9.28
2022-09-17T05:17:34.251Z,9.29
2022-09-17T05:20:00.623Z,9.36
2022-09-17T05:22:27.079Z,9.42
2022-09-17T05:24:53.547Z,9.40
2022-09-17T05:27:22.596Z,9.48
2022-09-17T05:29:48.974Z,9.49
2022-09-17T05:32:15.692Z,9.52
2022-09-17T05:34:42.155Z,9.54
2022-09-17T05:37:15.191Z,9.56
2022-09-17T05:39:44.432Z,9.52
2022-09-17T05:42:10.820Z,9.48
2022-09-17T05:44:37.135Z,9.48
2022-09-17T05:47:03.635Z,9.48
2022-09-17T05:49:30.091Z,9.50
2022-09-17T05:51:58.962Z,9.46
2022-09-17T05:54:25.375Z,9.43
2022-09-17T05:56:54.811Z,9.46
2022-09-17T05:59:21.493Z,9.50
2022-09-17T06:01:48.457Z,9.55
2022-09-17T06:04:17.948Z,9.50
2022-09-17T06:06:44.583Z,9.58
2022-09-17T06:09:14.524Z,9.65
2022-09-17T06:11:40.947Z,9.69
2022-09-17T06:14:07.326Z,9.71
2022-09-17T06:16:34.113Z,9.78
2022-09-17T06:19:00.707Z,9.71
2022-09-17T06:21:27.213Z,9.75
2022-09-17T06:23:55.908Z,9.79
2022-09-17T06:26:22.249Z,9.84
2022-09-17T06:28:48.631Z,9.82
2022-09-17T06:31:15.164Z,9.92
2022-09-17T06:33:43.834Z,9.95
2022-09-17T06:36:14.190Z,9.99
2022-09-17T06:38:43.506Z,10.04
2022-09-17T06:41:09.854Z,10.12
2022-09-17T06:43:36.219Z,10.20
2022-09-17T06:46:06.515Z,10.23
2022-09-17T06:48:38.719Z,10.30
2022-09-17T06:51:06.412Z,10.34
2022-09-17T06:53:38.302Z,10.37
2022-09-17T06:56:07.025Z,10.53
2022-09-17T06:58:36.989Z,10.57
2022-09-17T07:01:07.529Z,10.55
2022-09-17T07:03:34.217Z,10.55
2022-09-17T07:06:00.696Z,10.56
2022-09-17T07:08:27.477Z,10.53
2022-09-17T07:10:57.644Z,10.61
2022-09-17T07:13:25.164Z,10.68
2022-09-17T07:15:56.474Z,10.63
2022-09-17T07:18:23.291Z,10.73
2022-09-17T07:20:57.663Z,10.77
2022-09-17T07:23:25.385Z,10.89
2022-09-17T07:25:53.994Z,11.07
2022-09-17T07:28:20.959Z,11.13
2022-09-17T07:30:47.367Z,11.25
2022-09-17T07:33:16.585Z,11.28
2022-09-17T07:35:42.989Z,11.37
2022-09-17T07:38:09.410Z,11.49
2022-09-17T07:40:41.027Z,11.51
2022-09-17T07:43:08.895Z,11.54
2022-09-17T07:45:35.295Z,11.57
2022-09-17T07:48:01.774Z,11.74
2022-09-17T07:50:28.447Z,11.83
2022-09-17T07:52:56.960Z,11.84
2022-09-17T07:55:25.458Z,11.90
2022-09-17T07:57:52.425Z,12.11
2022-09-17T08:00:19.375Z,12.37
2022-09-17T08:02:45.827Z,12.31
2022-09-17T08:05:12.409Z,12.25
2022-09-17T08:07:38.814Z,12.17
2022-09-17T08:10:06.071Z,12.30
2022-09-17T08:12:32.435Z,12.47
2022-09-17T08:14:58.773Z,12.85
2022-09-17T08:17:25.168Z,13.20
2022-09-17T08:19:51.531Z,13.41
2022-09-17T08:22:17.875Z,13.47
2022-09-17T08:24:44.672Z,13.45
2022-09-17T08:27:11.033Z,13.31
2022-09-17T08:29:37.404Z,13.26
2022-09-17T08:32:03.876Z,13.17
2022-09-17T08:34:30.299Z,13.24
2022-09-17T08:36:56.679Z,13.55
2022-09-17T08:39:25.437Z,13.64
2022-09-17T08:42:10.543Z,13.57
2022-09-17T08:44:42.593Z,13.64
2022-09-17T08:47:27.540Z,13.47
2022-09-17T08:50:08.229Z,13.49
2022-09-17T08:53:16.563Z,13.48
2022-09-17T08:55:47.005Z,13.48
2022-09-17T08:58:40.729Z,13.44
2022-09-17T09:01:09.892Z,13.73
2022-09-17T09:03:51.401Z,14.04
2022-09-17T09:06:21.693Z,14.00
2022-09-17T09:08:56.646Z,13.96
2022-09-17T09:11:30.964Z,14.08
2022-09-17T09:14:32.295Z,14.25
2022-09-17T09:17:03.388Z,14.11
2022-09-17T09:19:34.039Z,14.58
2022-09-17T09:22:03.403Z,15.06
2022-09-17T09:24:41.488Z,14.88
2022-09-17T09:27:28.029Z,14.61
2022-09-17T09:30:06.627Z,14.41
2022-09-17T09:32:57.097Z,14.50
2022-09-17T09:35:28.122Z,14.42
2022-09-17T09:38:01.194Z,14.40
2022-09-17T09:40:45.739Z,14.95
2022-09-17T09:43:21.115Z,14.94
2022-09-17T09:46:14.755Z,14.81
2022-09-17T09:48:55.940Z,15.22
2022-09-17T09:51:33.669Z,15.41
2022-09-17T09:54:18.540Z,15.61
2022-09-17T09:56:56.068Z,15.65
2022-09-17T09:59:22.935Z,15.76
2022-09-17T10:01:49.503Z,15.88
2022-09-17T10:04:22.724Z,16.13
2022-09-17T10:07:07.567Z,16.25
2022-09-17T10:09:37.045Z,15.93
2022-09-17T10:12:03.610Z,15.72
2022-09-17T10:14:33.130Z,15.74
2022-09-17T10:17:14.710Z,16.08
2022-09-17T10:19:42.410Z,16.37
2022-09-17T10:22:32.283Z,16.09
2022-09-17T10:25:00.899Z,15.97
2022-09-17T10:27:28.591Z,15.84
2022-09-17T10:30:13.733Z,15.87
2022-09-17T10:32:40.079Z,15.86
2022-09-17T10:35:28.203Z,15.75
2022-09-17T10:37:54.981Z,15.72
2022-09-17T10:40:21.399Z,15.64
2022-09-17T10:42:49.884Z,15.66
2022-09-17T10:45:29.328Z,15.81
2022-09-17T10:47:58.325Z,15.86
2022-09-17T10:50:28.801Z,16.11
2022-09-17T10:53:04.356Z,16.39
2022-09-17T10:55:52.243Z,16.42
2022-09-17T10:58:21.938Z,16.47
2022-09-17T11:01:00.521Z,16.66
2022-09-17T11:04:04.687Z,16.82
2022-09-17T11:06:49.367Z,16.58
2022-09-17T11:10:05.896Z,16.58
2022-09-17T11:12:39.309Z,16.42
2022-09-17T11:15:28.590Z,16.57
2022-09-17T11:18:23.432Z,16.70
2022-09-17T11:21:13.848Z,16.67
2022-09-17T11:23:52.110Z,16.53
2022-09-17T11:26:35.467Z,16.67
2022-09-17T11:29:04.750Z,16.68
2022-09-17T11:31:37.147Z,16.08
2022-09-17T11:34:32.766Z,15.95
2022-09-17T11:37:23.550Z,15.84
2022-09-17T11:39:57.656Z,15.70
2022-09-17T11:42:55.536Z,15.86
2022-09-17T11:45:36.506Z,15.89
2022-09-17T11:48:05.335Z,15.79
2022-09-17T11:50:37.171Z,15.69
2022-09-17T11:53:15.176Z,15.75
2022-09-17T11:56:02.446Z,15.80
2022-09-17T11:59:11.040Z,15.57
2022-09-17T12:01:49.445Z,15.58
2022-09-17T12:04:40.684Z,15.47
2022-09-17T12:07:31.444Z,15.76
2022-09-17T12:10:25.011Z,15.85
2022-09-17T12:13:07.228Z,16.04
2022-09-17T12:15:38.413Z,16.12
2022-09-17T12:18:30.408Z,16.17
2022-09-17T12:20:55.537Z,16.14
2022-09-17T12:23:37.105Z,16.03
2022-09-17T12:26:25.647Z,15.77
2022-09-17T12:29:21.381Z,15.56
2022-09-17T12:32:15.950Z,16.03
2022-09-17T12:34:56.180Z,16.33
2022-09-17T12:37:44.076Z,16.24
2022-09-17T12:40:39.303Z,16.25
2022-09-17T12:43:28.638Z,16.31
2022-09-17T12:46:32.628Z,16.43
2022-09-17T12:49:02.276Z,16.42
2022-09-17T12:51:39.855Z,16.46
2022-09-17T12:54:20.498Z,16.49
2022-09-17T12:57:07.113Z,16.51
2022-09-17T12:59:40.199Z,16.56
2022-09-17T13:02:31.753Z,16.35
2022-09-17T13:05:09.909Z,16.40
2022-09-17T13:08:01.921Z,16.28
2022-09-17T13:10:46.748Z,16.59
2022-09-17T13:13:28.147Z,16.55
2022-09-17T13:16:04.998Z,16.89
2022-09-17T13:18:59.329Z,16.80
2022-09-17T13:21:40.440Z,16.95
2022-09-17T13:24:29.790Z,16.64
2022-09-17T13:26:58.594Z,16.63
2022-09-17T13:29:44.185Z,16.42
2022-09-17T13:32:32.363Z,16.16
2022-09-17T13:35:18.665Z,15.98
2022-09-17T13:37:56.521Z,16.12
2022-09-17T13:40:30.471Z,16.54
2022-09-17T13:42:58.053Z,16.20
2022-09-17T13:45:26.480Z,16.00
2022-09-17T13:48:06.435Z,15.98
2022-09-17T13:50:32.870Z,16.23
2022-09-17T13:53:14.387Z,16.24
2022-09-17T13:55:51.398Z,16.22
2022-09-17T13:58:23.178Z,16.10
2022-09-17T14:00:55.939Z,15.95
2022-09-17T14:03:31.345Z,16.24
2022-09-17T14:06:24.608Z,16.59
2022-09-17T14:08:56.297Z,16.81
2022-09-17T14:11:25.317Z,16.72
2022-09-17T14:13:56.304Z,16.79
2022-09-17T14:16:25.649Z,16.77
2022-09-17T14:19:17.233Z,16.61
2022-09-17T14:22:02.036Z,16.86
2022-09-17T14:24:44.194Z,16.87
2022-09-17T14:27:10.460Z,16.88
2022-09-17T14:29:48.694Z,16.81
2022-09-17T14:32:21.904Z,16.74
2022-09-17T14:34:49.683Z,16.51
2022-09-17T14:37:20.648Z,16.51
2022-09-17T14:39:49.140Z,16.44
2022-09-17T14:42:23.850Z,16.45
2022-09-17T14:45:06.617Z,16.34
2022-09-17T14:47:33.125Z,16.12
2022-09-17T14:50:20.496Z,16.08
2022-09-17T14:52:54.409Z,16.05
2022-09-17T14:55:25.325Z,16.02
2022-09-17T14:58:02.419Z,15.98
2022-09-17T15:00:34.133Z,15.90
2022-09-17T15:03:00.700Z,15.81
2022-09-17T15:05:30.264Z,15.85
2022-09-17T15:08:16.570Z,15.80
2022-09-17T15:10:56.934Z,15.78
2022-09-17T15:13:26.543Z,15.77
2022-09-17T15:15:59.706Z,15.74
2022-09-17T15:18:52.591Z,15.72
2022-09-17T15:21:43.821Z,15.76
2022-09-17T15:24:35.162Z,15.80
2022-09-17T15:27:31.684Z,15.73
2022-09-17T15:30:03.416Z,15.61
2022-09-17T15:32:30.510Z,15.56
2022-09-17T15:35:15.474Z,15.48
2022-09-17T15:38:11.537Z,15.45
2022-09-17T15:40:39.177Z,15.36
2022-09-17T15:43:22.667Z,15.31
2022-09-17T15:45:49.183Z,15.25
2022-09-17T15:48:30.107Z,15.24
2022-09-17T15:50:58.452Z,15.32
2022-09-17T15:53:28.595Z,15.35
2022-09-17T15:56:15.252Z,15.43
2022-09-17T15:58:41.600Z,15.55
2022-09-17T16:01:13.866Z,15.55
2022-09-17T16:03:40.427Z,15.60
2022-09-17T16:06:19.002Z,15.55
2022-09-17T16:08:50.699Z,15.44
2022-09-17T16:11:22.094Z,15.25
2022-09-17T16:13:49.907Z,15.18
2022-09-17T16:16:21.860Z,15.10
2022-09-17T16:18:48.928Z,15.03
2022-09-17T16:21:17.277Z,14.94
2022-09-17T16:23:46.574Z,14.92
2022-09-17T16:26:23.856Z,14.82
2022-09-17T16:28:53.646Z,14.76
2022-09-17T16:31:20.919Z,14.62
2022-09-17T16:33:51.978Z,14.50
2022-09-17T16:36:18.760Z,14.44
2022-09-17T16:38:45.163Z,14.36
2022-09-17T16:41:11.512Z,14.33
2022-09-17T16:43:40.108Z,14.31
2022-09-17T16:46:10.352Z,14.24
2022-09-17T16:48:43.521Z,14.14
2022-09-17T16:51:12.125Z,14.07
2022-09-17T16:53:38.680Z,14.05
2022-09-17T16:56:09.160Z,14.01
2022-09-17T16:58:35.656Z,14.01
2022-09-17T17:01:13.955Z,13.97
2022-09-17T17:03:41.198Z,13.99
2022-09-17T17:06:19.309Z,13.84
2022-09-17T17:08:45.847Z,13.73
2022-09-17T17:11:12.488Z,13.40
2022-09-17T17:13:39.275Z,13.27
2022-09-17T17:16:13.210Z,13.02
2022-09-17T17:18:43.502Z,12.76
2022-09-17T17:21:11.753Z,12.69
2022-09-17T17:23:43.384Z,12.46
2022-09-17T17:26:10.002Z,12.37
2022-09-17T17:28:38.756Z,12.28
2022-09-17T17:31:08.184Z,12.20
2022-09-17T17:33:34.668Z,12.10
2022-09-17T17:36:07.616Z,12.07
2022-09-17T17:38:35.349Z,12.00
2022-09-17T17:41:02.952Z,11.92
2022-09-17T17:43:34.324Z,11.86
2022-09-17T17:46:05.158Z,11.77
2022-09-17T17:48:31.630Z,11.70
2022-09-17T17:51:08.496Z,11.58
2022-09-17T17:53:35.417Z,11.57
2022-09-17T17:56:06.438Z,11.41
2022-09-17T17:58:33.468Z,11.38
2022-09-17T18:01:00.538Z,11.27
2022-09-17T18:03:27.023Z,11.31
2022-09-17T18:06:01.343Z,11.29
2022-09-17T18:08:27.751Z,11.32
2022-09-17T18:10:56.010Z,11.27
2022-09-17T18:13:26.292Z,11.27
2022-09-17T18:16:02.357Z,11.27
2022-09-17T18:18:43.615Z,11.24
2022-09-17T18:21:14.084Z,11.25
2022-09-17T18:23:41.482Z,11.17
2022-09-17T18:26:11.291Z,11.07
2022-09-17T18:28:37.769Z,11.09
2022-09-17T18:31:08.229Z,11.07
2022-09-17T18:33:39.771Z,11.01
2022-09-17T18:36:06.350Z,10.96
2022-09-17T18:38:33.019Z,10.95
2022-09-17T18:41:04.426Z,10.85
2022-09-17T18:43:33.356Z,10.86
2022-09-17T18:46:00.842Z,10.85
2022-09-17T18:48:28.156Z,10.87
2022-09-17T18:51:08.732Z,10.95
2022-09-17T18:53:37.014Z,10.92
2022-09-17T18:56:19.391Z,10.97
2022-09-17T18:58:46.659Z,11.02
2022-09-17T19:01:16.674Z,11.03
2022-09-17T19:03:45.592Z,11.07
2022-09-17T19:06:15.217Z,11.11
2022-09-17T19:08:42.869Z,11.17
2022-09-17T19:11:09.795Z,11.30
2022-09-17T19:13:41.452Z,11.42
2022-09-17T19:16:08.651Z,11.34
2022-09-17T19:18:38.105Z,11.51
2022-09-17T19:21:07.533Z,11.46
2022-09-17T19:23:34.512Z,11.51
2022-09-17T19:26:17.419Z,11.50
2022-09-17T19:28:43.888Z,11.47
2022-09-17T19:31:12.780Z,11.46
2022-09-17T19:33:44.229Z,11.45
2022-09-17T19:36:12.600Z,11.38
2022-09-17T19:38:39.565Z,11.37
2022-09-17T19:41:09.302Z,11.35
2022-09-17T19:43:35.690Z,11.34
2022-09-17T19:46:05.404Z,11.27
2022-09-17T19:48:40.215Z,11.25
2022-09-17T19:51:07.165Z,11.13
2022-09-17T19:53:33.649Z,11.14
2022-09-17T19:56:03.604Z,11.08
2022-09-17T19:58:30.016Z,11.08
2022-09-17T20:01:00.222Z,11.02
2022-09-17T20:03:26.956Z,11.03
2022-09-17T20:06:05.413Z,11.09
2022-09-17T20:08:32.623Z,11.06
2022-09-17T20:11:07.292Z,11.06
2022-09-17T20:13:34.529Z,11.04
2022-09-17T20:16:12.931Z,11.07
2022-09-17T20:18:39.615Z,11.10
2022-09-17T20:21:08.322Z,11.08
2022-09-17T20:23:40.022Z,11.10
2022-09-17T20:26:09.229Z,11.11
2022-09-17T20:28:35.619Z,11.12
2022-09-17T20:31:16.921Z,11.16
2022-09-17T20:34:05.933Z,11.15
2022-09-17T20:36:35.290Z,11.19
2022-09-17T20:39:22.194Z,11.16
2022-09-17T20:41:48.826Z,11.14
2022-09-17T20:44:15.161Z,11.14
2022-09-17T20:46:41.761Z,11.14
2022-09-17T20:49:17.993Z,11.12
2022-09-17T20:51:44.347Z,11.09
2022-09-17T20:54:10.940Z,11.08
2022-09-17T20:56:37.357Z,11.09
2022-09-17T20:59:14.205Z,11.06
2022-09-17T21:01:46.878Z,11.04
2022-09-17T21:04:15.899Z,11.05
2022-09-17T21:06:43.753Z,11.06
2022-09-17T21:09:12.257Z,11.04
2022-09-17T21:11:38.717Z,11.00
2022-09-17T21:14:05.351Z,11.02
2022-09-17T21:16:39.138Z,11.04
2022-09-17T21:19:07.934Z,11.02
2022-09-17T21:21:34.650Z,11.05
2022-09-17T21:24:07.349Z,11.01
2022-09-17T21:26:34.785Z,11.03
2022-09-17T21:29:01.678Z,10.98
2022-09-17T21:31:32.581Z,10.95
2022-09-17T21:34:01.957Z,10.97
2022-09-17T21:36:30.871Z,10.96
2022-09-17T21:39:03.560Z,10.96
2022-09-17T21:41:30.086Z,10.96
2022-09-17T21:43:56.762Z,10.92
2022-09-17T21:46:26.397Z,10.92
2022-09-17T21:48:55.975Z,10.85
2022-09-17T21:51:25.561Z,10.87
2022-09-17T21:53:53.373Z,10.90
2022-09-17T21:56:21.086Z,10.91
2022-09-17T21:58:54.595Z,10.88
2022-09-17T22:01:27.143Z,10.86
2022-09-17T22:03:56.372Z,10.88
2022-09-17T22:06:31.360Z,10.90
2022-09-17T22:08:59.493Z,10.90
2022-09-17T22:11:33.797Z,10.88
2022-09-17T22:14:08.954Z,10.89
2022-09-17T22:16:40.137Z,10.88
2022-09-17T22:19:08.602Z,10.90
2022-09-17T22:21:37.777Z,10.88
2022-09-17T22:24:09.223Z,10.86
2022-09-17T22:26:39.490Z,10.88
2022-09-17T22:29:09.288Z,10.87
2022-09-17T22:31:36.040Z,10.88
2022-09-17T22:34:08.078Z,10.86
2022-09-17T22:36:37.558Z,10.89
2022-09-17T22:39:04.939Z,10.87
2022-09-17T22:41:34.117Z,10.86
2022-09-17T22:44:03.237Z,10.85
2022-09-17T22:46:32.737Z,10.84
2022-09-17T22:49:00.122Z,10.84
2022-09-17T22:51:28.879Z,10.87
2022-09-17T22:53:56.520Z,10.86
2022-09-17T22:56:26.992Z,10.85
2022-09-17T22:58:53.995Z,10.85
2022-09-17T23:01:24.695Z,10.85
2022-09-17T23:03:52.283Z,10.84
2022-09-17T23:06:24.933Z,10.83
2022-09-17T23:08:52.408Z,10.79
2022-09-17T23:11:31.033Z,10.84
2022-09-17T23:14:02.086Z,10.86
2022-09-17T23:16:35.759Z,10.84
2022-09-17T23:19:02.271Z,10.86
2022-09-17T23:21:28.861Z,10.85
2022-09-17T23:23:55.268Z,10.87
2022-09-17T23:26:26.396Z,10.87
2022-09-17T23:28:53.201Z,10.87
2022-09-17T23:31:21.202Z,10.86
2022-09-17T23:33:48.506Z,10.90
2022-09-17T23:36:19.338Z,10.90
2022-09-17T23:38:47.444Z,10.91
2022-09-17T23:41:35.529Z,10.91
2022-09-17T23:44:05.319Z,10.93
2022-09-17T23:46:33.472Z,10.92
2022-09-17T23:49:00.465Z,10.95
2022-09-17T23:51:30.684Z,10.97
2022-09-17T23:53:57.883Z,10.98
2022-09-17T23:56:26.549Z,11.01
2022-09-17T23:58:54.545Z,10.98
